sensor_id;sensor_type;location;lat;lon;timestamp;temperature;humidity
64501;DHT22;50874;24.150;-110.320;2023-11-21T00:00:35;24.90;99.90
64501;DHT22;50874;24.150;-110.320;2023-11-21T00:03:01;24.90;99.90
64501;DHT22;50874;24.150;-110.320;2023-11-21T00:05:28;24.70;99.90
64501;DHT22;50874;24.150;-110.320;2023-11-21T00:07:54;24.60;99.90
64501;DHT22;50874;24.150;-110.320;2023-11-21T00:10:21;24.50;99.90
64501;DHT22;50874;24.150;-110.320;2023-11-21T00:12:47;24.50;99.90
64501;DHT22;50874;24.150;-110.320;2023-11-21T00:15:14;24.50;99.90
64501;DHT22;50874;24.150;-110.320;2023-11-21T00:17:41;24.50;99.90
64501;DHT22;50874;24.150;-110.320;2023-11-21T00:20:09;24.50;99.90
64501;DHT22;50874;24.150;-110.320;2023-11-21T00:22:38;24.50;99.90
64501;DHT22;50874;24.150;-110.320;2023-11-21T00:25:06;24.50;99.90
64501;DHT22;50874;24.150;-110.320;2023-11-21T00:27:35;24.50;99.90
64501;DHT22;50874;24.150;-110.320;2023-11-21T00:30:02;24.50;99.90
64501;DHT22;50874;24.150;-110.320;2023-11-21T00:32:30;24.50;99.90
64501;DHT22;50874;24.150;-110.320;2023-11-21T00:34:56;24.50;99.90
64501;DHT22;50874;24.150;-110.320;2023-11-21T00:37:23;24.50;99.90
64501;DHT22;50874;24.150;-110.320;2023-11-21T00:39:50;24.50;99.90
64501;DHT22;50874;24.150;-110.320;2023-11-21T00:42:17;24.50;99.90
64501;DHT22;50874;24.150;-110.320;2023-11-21T00:44:43;24.40;99.90
64501;DHT22;50874;24.150;-110.320;2023-11-21T00:47:10;24.40;99.90
64501;DHT22;50874;24.150;-110.320;2023-11-21T00:49:36;24.40;99.90
64501;DHT22;50874;24.150;-110.320;2023-11-21T00:52:06;24.30;99.90
64501;DHT22;50874;24.150;-110.320;2023-11-21T00:54:32;24.30;99.90
64501;DHT22;50874;24.150;-110.320;2023-11-21T00:56:59;24.20;99.90
64501;DHT22;50874;24.150;-110.320;2023-11-21T00:59:26;24.20;99.90
64501;DHT22;50874;24.150;-110.320;2023-11-21T01:01:52;24.30;99.90
64501;DHT22;50874;24.150;-110.320;2023-11-21T01:04:20;24.20;99.90
64501;DHT22;50874;24.150;-110.320;2023-11-21T01:06:46;24.20;99.90
64501;DHT22;50874;24.150;-110.320;2023-11-21T01:09:13;24.20;99.90
64501;DHT22;50874;24.150;-110.320;2023-11-21T01:11:39;24.10;99.90
64501;DHT22;50874;24.150;-110.320;2023-11-21T01:14:06;24.10;99.90
64501;DHT22;50874;24.150;-110.320;2023-11-21T01:16:35;24.10;99.90
64501;DHT22;50874;24.150;-110.320;2023-11-21T01:19:01;24.10;99.90
64501;DHT22;50874;24.150;-110.320;2023-11-21T01:21:28;24.10;99.90
64501;DHT22;50874;24.150;-110.320;2023-11-21T01:23:55;24.00;99.90
64501;DHT22;50874;24.150;-110.320;2023-11-21T01:26:21;24.00;99.90
64501;DHT22;50874;24.150;-110.320;2023-11-21T01:28:48;24.00;99.90
64501;DHT22;50874;24.150;-110.320;2023-11-21T01:31:15;23.90;99.90
64501;DHT22;50874;24.150;-110.320;2023-11-21T01:33:42;23.90;99.90
64501;DHT22;50874;24.150;-110.320;2023-11-21T01:36:09;23.90;99.90
64501;DHT22;50874;24.150;-110.320;2023-11-21T01:38:35;23.90;99.90
64501;DHT22;50874;24.150;-110.320;2023-11-21T01:41:02;23.80;99.90
64501;DHT22;50874;24.150;-110.320;2023-11-21T01:43:30;23.80;99.90
64501;DHT22;50874;24.150;-110.320;2023-11-21T01:45:58;23.80;99.90
64501;DHT22;50874;24.150;-110.320;2023-11-21T01:48:25;23.80;99.90
64501;DHT22;50874;24.150;-110.320;2023-11-21T01:50:52;23.80;99.90
64501;DHT22;50874;24.150;-110.320;2023-11-21T01:53:18;23.80;99.90
64501;DHT22;50874;24.150;-110.320;2023-11-21T01:55:46;23.80;99.90
64501;DHT22;50874;24.150;-110.320;2023-11-21T01:58:13;23.80;99.90
64501;DHT22;50874;24.150;-110.320;2023-11-21T02:00:40;23.80;99.90
64501;DHT22;50874;24.150;-110.320;2023-11-21T02:03:07;23.80;99.90
64501;DHT22;50874;24.150;-110.320;2023-11-21T02:05:33;23.70;99.90
64501;DHT22;50874;24.150;-110.320;2023-11-21T02:08:00;23.80;99.90
64501;DHT22;50874;24.150;-110.320;2023-11-21T02:10:26;23.80;99.90
64501;DHT22;50874;24.150;-110.320;2023-11-21T02:12:53;23.80;99.90
64501;DHT22;50874;24.150;-110.320;2023-11-21T02:15:22;23.80;99.90
64501;DHT22;50874;24.150;-110.320;2023-11-21T02:17:54;23.70;99.90
64501;DHT22;50874;24.150;-110.320;2023-11-21T02:20:22;23.70;99.90
64501;DHT22;50874;24.150;-110.320;2023-11-21T02:22:50;23.80;99.90
64501;DHT22;50874;24.150;-110.320;2023-11-21T02:25:27;23.80;99.90
64501;DHT22;50874;24.150;-110.320;2023-11-21T02:27:55;23.80;99.90
64501;DHT22;50874;24.150;-110.320;2023-11-21T02:30:22;23.80;99.90
64501;DHT22;50874;24.150;-110.320;2023-11-21T02:32:49;23.80;99.90
64501;DHT22;50874;24.150;-110.320;2023-11-21T02:35:15;23.80;99.90
64501;DHT22;50874;24.150;-110.320;2023-11-21T02:37:42;23.70;99.90
64501;DHT22;50874;24.150;-110.320;2023-11-21T02:40:10;23.70;99.90
64501;DHT22;50874;24.150;-110.320;2023-11-21T02:42:39;23.70;99.90
64501;DHT22;50874;24.150;-110.320;2023-11-21T02:45:07;23.70;99.90
64501;DHT22;50874;24.150;-110.320;2023-11-21T02:47:34;23.70;99.90
64501;DHT22;50874;24.150;-110.320;2023-11-21T02:50:01;23.70;99.90
64501;DHT22;50874;24.150;-110.320;2023-11-21T02:52:27;23.60;99.90
64501;DHT22;50874;24.150;-110.320;2023-11-21T02:54:53;23.60;99.90
64501;DHT22;50874;24.150;-110.320;2023-11-21T02:57:20;23.60;99.90
64501;DHT22;50874;24.150;-110.320;2023-11-21T02:59:46;23.60;99.90
64501;DHT22;50874;24.150;-110.320;2023-11-21T03:02:13;23.60;99.90
64501;DHT22;50874;24.150;-110.320;2023-11-21T03:04:39;23.60;99.90
64501;DHT22;50874;24.150;-110.320;2023-11-21T03:07:05;23.50;99.90
64501;DHT22;50874;24.150;-110.320;2023-11-21T03:09:32;23.50;99.90
64501;DHT22;50874;24.150;-110.320;2023-11-21T03:11:58;23.50;99.90
64501;DHT22;50874;24.150;-110.320;2023-11-21T03:14:25;23.40;99.90
64501;DHT22;50874;24.150;-110.320;2023-11-21T03:16:51;23.50;99.90
64501;DHT22;50874;24.150;-110.320;2023-11-21T03:19:17;23.40;99.90
64501;DHT22;50874;24.150;-110.320;2023-11-21T03:21:44;23.30;99.90
64501;DHT22;50874;24.150;-110.320;2023-11-21T03:24:10;23.30;99.90
64501;DHT22;50874;24.150;-110.320;2023-11-21T03:26:37;23.30;99.90
64501;DHT22;50874;24.150;-110.320;2023-11-21T03:29:04;23.30;99.90
64501;DHT22;50874;24.150;-110.320;2023-11-21T03:31:31;23.20;99.90
64501;DHT22;50874;24.150;-110.320;2023-11-21T03:33:57;23.30;99.90
64501;DHT22;50874;24.150;-110.320;2023-11-21T03:36:24;23.30;99.90
64501;DHT22;50874;24.150;-110.320;2023-11-21T03:38:51;23.20;99.90
64501;DHT22;50874;24.150;-110.320;2023-11-21T03:41:17;23.20;99.90
64501;DHT22;50874;24.150;-110.320;2023-11-21T03:43:44;23.20;99.90
64501;DHT22;50874;24.150;-110.320;2023-11-21T03:46:11;23.20;99.90
64501;DHT22;50874;24.150;-110.320;2023-11-21T03:48:38;23.20;99.90
64501;DHT22;50874;24.150;-110.320;2023-11-21T03:51:05;23.20;99.90
64501;DHT22;50874;24.150;-110.320;2023-11-21T03:53:32;23.20;99.90
64501;DHT22;50874;24.150;-110.320;2023-11-21T03:55:58;23.20;99.90
64501;DHT22;50874;24.150;-110.320;2023-11-21T03:58:25;23.10;99.90
64501;DHT22;50874;24.150;-110.320;2023-11-21T04:00:51;23.10;99.90
64501;DHT22;50874;24.150;-110.320;2023-11-21T04:03:17;23.10;99.90
64501;DHT22;50874;24.150;-110.320;2023-11-21T04:05:45;23.10;99.90
64501;DHT22;50874;24.150;-110.320;2023-11-21T04:08:11;23.10;99.90
64501;DHT22;50874;24.150;-110.320;2023-11-21T04:10:38;23.10;99.90
64501;DHT22;50874;24.150;-110.320;2023-11-21T04:13:05;23.00;99.90
64501;DHT22;50874;24.150;-110.320;2023-11-21T04:15:32;23.00;99.90
64501;DHT22;50874;24.150;-110.320;2023-11-21T04:17:59;23.00;99.90
64501;DHT22;50874;24.150;-110.320;2023-11-21T04:20:25;23.00;99.90
64501;DHT22;50874;24.150;-110.320;2023-11-21T04:22:53;23.00;99.90
64501;DHT22;50874;24.150;-110.320;2023-11-21T04:25:19;23.00;99.90
64501;DHT22;50874;24.150;-110.320;2023-11-21T04:27:46;23.00;99.90
64501;DHT22;50874;24.150;-110.320;2023-11-21T04:30:13;23.00;99.90
64501;DHT22;50874;24.150;-110.320;2023-11-21T04:32:43;23.00;99.90
64501;DHT22;50874;24.150;-110.320;2023-11-21T04:35:10;22.90;99.90
64501;DHT22;50874;24.150;-110.320;2023-11-21T04:37:36;22.90;99.90
64501;DHT22;50874;24.150;-110.320;2023-11-21T04:40:03;22.90;99.90
64501;DHT22;50874;24.150;-110.320;2023-11-21T04:42:38;22.90;99.90
64501;DHT22;50874;24.150;-110.320;2023-11-21T04:45:05;22.90;99.90
64501;DHT22;50874;24.150;-110.320;2023-11-21T04:47:35;22.90;99.90
64501;DHT22;50874;24.150;-110.320;2023-11-21T04:50:03;22.80;99.90
64501;DHT22;50874;24.150;-110.320;2023-11-21T04:52:30;22.80;99.90
64501;DHT22;50874;24.150;-110.320;2023-11-21T04:54:57;22.80;99.90
64501;DHT22;50874;24.150;-110.320;2023-11-21T04:57:24;22.80;99.90
64501;DHT22;50874;24.150;-110.320;2023-11-21T04:59:50;22.80;99.90
64501;DHT22;50874;24.150;-110.320;2023-11-21T05:02:17;22.70;99.90
64501;DHT22;50874;24.150;-110.320;2023-11-21T05:04:45;22.70;99.90
64501;DHT22;50874;24.150;-110.320;2023-11-21T05:07:11;22.70;99.90
64501;DHT22;50874;24.150;-110.320;2023-11-21T05:09:44;22.70;99.90
64501;DHT22;50874;24.150;-110.320;2023-11-21T05:12:12;22.70;99.90
64501;DHT22;50874;24.150;-110.320;2023-11-21T05:14:38;22.70;99.90
64501;DHT22;50874;24.150;-110.320;2023-11-21T05:17:05;22.70;99.90
64501;DHT22;50874;24.150;-110.320;2023-11-21T05:19:31;22.70;99.90
64501;DHT22;50874;24.150;-110.320;2023-11-21T05:21:58;22.70;99.90
64501;DHT22;50874;24.150;-110.320;2023-11-21T05:24:26;22.60;99.90
64501;DHT22;50874;24.150;-110.320;2023-11-21T05:26:54;22.60;99.90
64501;DHT22;50874;24.150;-110.320;2023-11-21T05:29:22;22.60;99.90
64501;DHT22;50874;24.150;-110.320;2023-11-21T05:31:48;22.60;99.90
64501;DHT22;50874;24.150;-110.320;2023-11-21T05:34:15;22.60;99.90
64501;DHT22;50874;24.150;-110.320;2023-11-21T05:36:43;22.60;99.90
64501;DHT22;50874;24.150;-110.320;2023-11-21T05:39:11;22.60;99.90
64501;DHT22;50874;24.150;-110.320;2023-11-21T05:41:38;22.50;99.90
64501;DHT22;50874;24.150;-110.320;2023-11-21T05:44:04;22.60;99.90
64501;DHT22;50874;24.150;-110.320;2023-11-21T05:46:31;22.60;99.90
64501;DHT22;50874;24.150;-110.320;2023-11-21T05:48:57;22.60;99.90
64501;DHT22;50874;24.150;-110.320;2023-11-21T05:51:24;22.50;99.90
64501;DHT22;50874;24.150;-110.320;2023-11-21T05:53:50;22.50;99.90
64501;DHT22;50874;24.150;-110.320;2023-11-21T05:56:17;22.50;99.90
64501;DHT22;50874;24.150;-110.320;2023-11-21T05:58:44;22.50;99.90
64501;DHT22;50874;24.150;-110.320;2023-11-21T06:01:10;22.50;99.90
64501;DHT22;50874;24.150;-110.320;2023-11-21T06:03:39;22.50;99.90
64501;DHT22;50874;24.150;-110.320;2023-11-21T06:06:17;22.50;99.90
64501;DHT22;50874;24.150;-110.320;2023-11-21T06:08:45;22.50;99.90
64501;DHT22;50874;24.150;-110.320;2023-11-21T06:11:11;22.50;99.90
64501;DHT22;50874;24.150;-110.320;2023-11-21T06:13:38;22.40;99.90
64501;DHT22;50874;24.150;-110.320;2023-11-21T06:16:04;22.40;99.90
64501;DHT22;50874;24.150;-110.320;2023-11-21T06:18:31;22.40;99.90
64501;DHT22;50874;24.150;-110.320;2023-11-21T06:20:57;22.40;99.90
64501;DHT22;50874;24.150;-110.320;2023-11-21T06:23:26;22.40;99.90
64501;DHT22;50874;24.150;-110.320;2023-11-21T06:25:53;22.40;99.90
64501;DHT22;50874;24.150;-110.320;2023-11-21T06:28:19;22.40;99.90
64501;DHT22;50874;24.150;-110.320;2023-11-21T06:30:46;22.40;99.90
64501;DHT22;50874;24.150;-110.320;2023-11-21T06:33:12;22.40;99.90
64501;DHT22;50874;24.150;-110.320;2023-11-21T06:35:39;22.40;99.90
64501;DHT22;50874;24.150;-110.320;2023-11-21T06:38:05;22.40;99.90
64501;DHT22;50874;24.150;-110.320;2023-11-21T06:40:32;22.40;99.90
64501;DHT22;50874;24.150;-110.320;2023-11-21T06:42:59;22.30;99.90
64501;DHT22;50874;24.150;-110.320;2023-11-21T06:45:26;22.40;99.90
64501;DHT22;50874;24.150;-110.320;2023-11-21T06:47:53;22.40;99.90
64501;DHT22;50874;24.150;-110.320;2023-11-21T06:50:19;22.30;99.90
64501;DHT22;50874;24.150;-110.320;2023-11-21T06:52:47;22.30;99.90
64501;DHT22;50874;24.150;-110.320;2023-11-21T06:55:14;22.30;99.90
64501;DHT22;50874;24.150;-110.320;2023-11-21T06:57:42;22.30;99.90
64501;DHT22;50874;24.150;-110.320;2023-11-21T07:00:09;22.30;99.90
64501;DHT22;50874;24.150;-110.320;2023-11-21T07:02:35;22.30;99.90
64501;DHT22;50874;24.150;-110.320;2023-11-21T07:05:02;22.30;99.90
64501;DHT22;50874;24.150;-110.320;2023-11-21T07:07:29;22.20;99.90
64501;DHT22;50874;24.150;-110.320;2023-11-21T07:09:55;22.30;99.90
64501;DHT22;50874;24.150;-110.320;2023-11-21T07:12:22;22.20;99.90
64501;DHT22;50874;24.150;-110.320;2023-11-21T07:14:51;22.20;99.90
64501;DHT22;50874;24.150;-110.320;2023-11-21T07:17:18;22.20;99.90
64501;DHT22;50874;24.150;-110.320;2023-11-21T07:19:45;22.20;99.90
64501;DHT22;50874;24.150;-110.320;2023-11-21T07:22:11;22.20;99.90
64501;DHT22;50874;24.150;-110.320;2023-11-21T07:24:39;22.30;99.90
64501;DHT22;50874;24.150;-110.320;2023-11-21T07:27:06;22.20;99.90
64501;DHT22;50874;24.150;-110.320;2023-11-21T07:29:33;22.20;99.90
64501;DHT22;50874;24.150;-110.320;2023-11-21T07:32:00;22.20;99.90
64501;DHT22;50874;24.150;-110.320;2023-11-21T07:34:26;22.20;99.90
64501;DHT22;50874;24.150;-110.320;2023-11-21T07:36:53;22.20;99.90
64501;DHT22;50874;24.150;-110.320;2023-11-21T07:39:19;22.10;99.90
64501;DHT22;50874;24.150;-110.320;2023-11-21T07:41:47;22.10;99.90
64501;DHT22;50874;24.150;-110.320;2023-11-21T07:44:18;22.20;99.90
64501;DHT22;50874;24.150;-110.320;2023-11-21T07:46:45;22.20;99.90
64501;DHT22;50874;24.150;-110.320;2023-11-21T07:49:12;22.10;99.90
64501;DHT22;50874;24.150;-110.320;2023-11-21T07:51:49;22.10;99.90
64501;DHT22;50874;24.150;-110.320;2023-11-21T07:54:15;22.10;99.90
64501;DHT22;50874;24.150;-110.320;2023-11-21T07:56:42;22.10;99.90
64501;DHT22;50874;24.150;-110.320;2023-11-21T07:59:08;22.00;99.90
64501;DHT22;50874;24.150;-110.320;2023-11-21T08:01:35;22.00;99.90
64501;DHT22;50874;24.150;-110.320;2023-11-21T08:04:01;22.00;99.90
64501;DHT22;50874;24.150;-110.320;2023-11-21T08:06:30;22.00;99.90
64501;DHT22;50874;24.150;-110.320;2023-11-21T08:08:57;22.00;99.90
64501;DHT22;50874;24.150;-110.320;2023-11-21T08:11:23;22.00;99.90
64501;DHT22;50874;24.150;-110.320;2023-11-21T08:13:50;21.90;99.90
64501;DHT22;50874;24.150;-110.320;2023-11-21T08:16:16;21.90;99.90
64501;DHT22;50874;24.150;-110.320;2023-11-21T08:18:43;21.90;99.90
64501;DHT22;50874;24.150;-110.320;2023-11-21T08:21:11;21.90;99.90
64501;DHT22;50874;24.150;-110.320;2023-11-21T08:23:38;21.90;99.90
64501;DHT22;50874;24.150;-110.320;2023-11-21T08:26:05;21.90;99.90
64501;DHT22;50874;24.150;-110.320;2023-11-21T08:28:31;21.80;99.90
64501;DHT22;50874;24.150;-110.320;2023-11-21T08:30:58;21.80;99.90
64501;DHT22;50874;24.150;-110.320;2023-11-21T08:33:24;21.70;99.90
64501;DHT22;50874;24.150;-110.320;2023-11-21T08:36:10;21.70;99.90
64501;DHT22;50874;24.150;-110.320;2023-11-21T08:38:38;21.70;99.90
64501;DHT22;50874;24.150;-110.320;2023-11-21T08:41:07;21.80;99.90
64501;DHT22;50874;24.150;-110.320;2023-11-21T08:43:35;21.70;99.90
64501;DHT22;50874;24.150;-110.320;2023-11-21T08:46:06;21.70;99.90
64501;DHT22;50874;24.150;-110.320;2023-11-21T08:48:36;21.70;99.90
64501;DHT22;50874;24.150;-110.320;2023-11-21T08:51:03;21.70;99.90
64501;DHT22;50874;24.150;-110.320;2023-11-21T08:53:30;21.60;99.90
64501;DHT22;50874;24.150;-110.320;2023-11-21T08:55:57;21.50;99.90
64501;DHT22;50874;24.150;-110.320;2023-11-21T08:58:24;21.50;99.90
64501;DHT22;50874;24.150;-110.320;2023-11-21T09:00:50;21.50;99.90
64501;DHT22;50874;24.150;-110.320;2023-11-21T09:03:17;21.50;99.90
64501;DHT22;50874;24.150;-110.320;2023-11-21T09:05:43;21.50;99.90
64501;DHT22;50874;24.150;-110.320;2023-11-21T09:08:10;21.50;99.90
64501;DHT22;50874;24.150;-110.320;2023-11-21T09:10:37;21.50;99.90
64501;DHT22;50874;24.150;-110.320;2023-11-21T09:13:05;21.40;99.90
64501;DHT22;50874;24.150;-110.320;2023-11-21T09:15:35;21.40;99.90
64501;DHT22;50874;24.150;-110.320;2023-11-21T09:18:01;21.40;99.90
64501;DHT22;50874;24.150;-110.320;2023-11-21T09:20:28;21.40;99.90
64501;DHT22;50874;24.150;-110.320;2023-11-21T09:22:54;21.40;99.90
64501;DHT22;50874;24.150;-110.320;2023-11-21T09:25:22;21.50;99.90
64501;DHT22;50874;24.150;-110.320;2023-11-21T09:27:48;21.50;99.90
64501;DHT22;50874;24.150;-110.320;2023-11-21T09:30:15;21.40;99.90
64501;DHT22;50874;24.150;-110.320;2023-11-21T09:32:42;21.50;99.90
64501;DHT22;50874;24.150;-110.320;2023-11-21T09:35:11;21.50;99.90
64501;DHT22;50874;24.150;-110.320;2023-11-21T09:37:39;21.50;99.90
64501;DHT22;50874;24.150;-110.320;2023-11-21T09:40:10;21.50;99.90
64501;DHT22;50874;24.150;-110.320;2023-11-21T09:42:57;21.40;99.90
64501;DHT22;50874;24.150;-110.320;2023-11-21T09:45:35;21.40;99.90
64501;DHT22;50874;24.150;-110.320;2023-11-21T09:48:02;21.40;99.90
64501;DHT22;50874;24.150;-110.320;2023-11-21T09:50:28;21.40;99.90
64501;DHT22;50874;24.150;-110.320;2023-11-21T09:53:13;21.30;99.90
64501;DHT22;50874;24.150;-110.320;2023-11-21T09:55:44;21.40;99.90
64501;DHT22;50874;24.150;-110.320;2023-11-21T09:58:11;21.30;99.90
64501;DHT22;50874;24.150;-110.320;2023-11-21T10:00:46;21.20;99.90
64501;DHT22;50874;24.150;-110.320;2023-11-21T10:03:13;21.30;99.90
64501;DHT22;50874;24.150;-110.320;2023-11-21T10:05:43;21.30;99.90
64501;DHT22;50874;24.150;-110.320;2023-11-21T10:08:12;21.30;99.90
64501;DHT22;50874;24.150;-110.320;2023-11-21T10:10:44;21.40;99.90
64501;DHT22;50874;24.150;-110.320;2023-11-21T10:13:12;21.30;99.90
64501;DHT22;50874;24.150;-110.320;2023-11-21T10:15:42;21.40;99.90
64501;DHT22;50874;24.150;-110.320;2023-11-21T10:18:15;21.40;99.90
64501;DHT22;50874;24.150;-110.320;2023-11-21T10:20:41;21.30;99.90
64501;DHT22;50874;24.150;-110.320;2023-11-21T10:23:09;21.30;99.90
64501;DHT22;50874;24.150;-110.320;2023-11-21T10:25:37;21.30;99.90
64501;DHT22;50874;24.150;-110.320;2023-11-21T10:28:04;21.20;99.90
64501;DHT22;50874;24.150;-110.320;2023-11-21T10:30:36;21.30;99.90
64501;DHT22;50874;24.150;-110.320;2023-11-21T10:33:04;21.30;99.90
64501;DHT22;50874;24.150;-110.320;2023-11-21T10:35:47;21.20;99.90
64501;DHT22;50874;24.150;-110.320;2023-11-21T10:38:17;21.20;99.90
64501;DHT22;50874;24.150;-110.320;2023-11-21T10:40:45;21.10;99.90
64501;DHT22;50874;24.150;-110.320;2023-11-21T10:43:13;21.10;99.90
64501;DHT22;50874;24.150;-110.320;2023-11-21T10:45:41;21.10;99.90
64501;DHT22;50874;24.150;-110.320;2023-11-21T10:48:14;21.10;99.90
64501;DHT22;50874;24.150;-110.320;2023-11-21T10:50:42;21.10;99.90
64501;DHT22;50874;24.150;-110.320;2023-11-21T10:53:09;21.10;99.90
64501;DHT22;50874;24.150;-110.320;2023-11-21T10:55:35;21.10;99.90
64501;DHT22;50874;24.150;-110.320;2023-11-21T10:58:03;21.10;99.90
64501;DHT22;50874;24.150;-110.320;2023-11-21T11:00:32;21.00;99.90
64501;DHT22;50874;24.150;-110.320;2023-11-21T11:02:59;21.10;99.90
64501;DHT22;50874;24.150;-110.320;2023-11-21T11:05:30;21.10;99.90
64501;DHT22;50874;24.150;-110.320;2023-11-21T11:08:12;21.00;99.90
64501;DHT22;50874;24.150;-110.320;2023-11-21T11:10:39;21.00;99.90
64501;DHT22;50874;24.150;-110.320;2023-11-21T11:13:07;21.00;99.90
64501;DHT22;50874;24.150;-110.320;2023-11-21T11:15:33;21.00;99.90
64501;DHT22;50874;24.150;-110.320;2023-11-21T11:18:00;21.00;99.90
64501;DHT22;50874;24.150;-110.320;2023-11-21T11:20:35;21.00;99.90
64501;DHT22;50874;24.150;-110.320;2023-11-21T11:23:32;20.90;99.90
64501;DHT22;50874;24.150;-110.320;2023-11-21T11:37:07;20.80;99.90
64501;DHT22;50874;24.150;-110.320;2023-11-21T11:39:41;20.70;99.90
64501;DHT22;50874;24.150;-110.320;2023-11-21T11:42:13;20.70;99.90
64501;DHT22;50874;24.150;-110.320;2023-11-21T11:47:22;20.60;99.90
64501;DHT22;50874;24.150;-110.320;2023-11-21T11:52:48;20.50;99.90
64501;DHT22;50874;24.150;-110.320;2023-11-21T11:55:18;20.50;99.90
64501;DHT22;50874;24.150;-110.320;2023-11-21T11:57:52;20.50;99.90
64501;DHT22;50874;24.150;-110.320;2023-11-21T12:00:33;20.50;99.90
64501;DHT22;50874;24.150;-110.320;2023-11-21T12:03:04;20.60;99.90
64501;DHT22;50874;24.150;-110.320;2023-11-21T12:05:36;20.50;99.90
64501;DHT22;50874;24.150;-110.320;2023-11-21T12:08:06;20.50;99.90
64501;DHT22;50874;24.150;-110.320;2023-11-21T12:10:38;20.50;99.90
64501;DHT22;50874;24.150;-110.320;2023-11-21T12:13:07;20.50;99.90
64501;DHT22;50874;24.150;-110.320;2023-11-21T12:15:36;20.50;99.90
64501;DHT22;50874;24.150;-110.320;2023-11-21T12:18:03;20.50;99.90
64501;DHT22;50874;24.150;-110.320;2023-11-21T12:20:30;20.50;99.90
64501;DHT22;50874;24.150;-110.320;2023-11-21T12:22:58;20.50;99.90
64501;DHT22;50874;24.150;-110.320;2023-11-21T12:25:27;20.40;99.90
64501;DHT22;50874;24.150;-110.320;2023-11-21T12:27:56;20.40;99.90
64501;DHT22;50874;24.150;-110.320;2023-11-21T12:30:25;20.30;99.90
64501;DHT22;50874;24.150;-110.320;2023-11-21T12:32:55;20.40;99.90
64501;DHT22;50874;24.150;-110.320;2023-11-21T12:35:31;20.40;99.90
64501;DHT22;50874;24.150;-110.320;2023-11-21T12:38:02;20.40;99.90
64501;DHT22;50874;24.150;-110.320;2023-11-21T12:40:30;20.40;99.90
64501;DHT22;50874;24.150;-110.320;2023-11-21T12:42:58;20.40;99.90
64501;DHT22;50874;24.150;-110.320;2023-11-21T12:45:26;20.40;99.90
64501;DHT22;50874;24.150;-110.320;2023-11-21T12:48:04;20.30;99.90
64501;DHT22;50874;24.150;-110.320;2023-11-21T12:50:34;20.30;99.90
64501;DHT22;50874;24.150;-110.320;2023-11-21T12:53:12;20.40;99.90
64501;DHT22;50874;24.150;-110.320;2023-11-21T12:55:39;20.40;99.90
64501;DHT22;50874;24.150;-110.320;2023-11-21T12:58:09;20.40;99.90
64501;DHT22;50874;24.150;-110.320;2023-11-21T13:00:46;20.40;99.90
64501;DHT22;50874;24.150;-110.320;2023-11-21T13:03:14;20.30;99.90
64501;DHT22;50874;24.150;-110.320;2023-11-21T13:05:48;20.30;99.90
64501;DHT22;50874;24.150;-110.320;2023-11-21T13:08:21;20.40;99.90
64501;DHT22;50874;24.150;-110.320;2023-11-21T13:10:55;20.30;99.90
64501;DHT22;50874;24.150;-110.320;2023-11-21T13:13:23;20.30;99.90
64501;DHT22;50874;24.150;-110.320;2023-11-21T13:15:55;20.30;99.90
64501;DHT22;50874;24.150;-110.320;2023-11-21T13:18:23;20.40;99.90
64501;DHT22;50874;24.150;-110.320;2023-11-21T13:20:50;20.40;99.90
64501;DHT22;50874;24.150;-110.320;2023-11-21T13:23:16;20.30;99.90
64501;DHT22;50874;24.150;-110.320;2023-11-21T13:25:43;20.30;99.90
64501;DHT22;50874;24.150;-110.320;2023-11-21T13:28:12;20.30;99.90
64501;DHT22;50874;24.150;-110.320;2023-11-21T13:30:38;20.30;99.90
64501;DHT22;50874;24.150;-110.320;2023-11-21T13:33:07;20.20;99.90
64501;DHT22;50874;24.150;-110.320;2023-11-21T13:35:36;20.20;99.90
64501;DHT22;50874;24.150;-110.320;2023-11-21T13:38:14;20.10;99.90
64501;DHT22;50874;24.150;-110.320;2023-11-21T13:40:48;20.10;99.90
64501;DHT22;50874;24.150;-110.320;2023-11-21T13:43:21;20.10;99.90
64501;DHT22;50874;24.150;-110.320;2023-11-21T13:45:50;20.00;99.90
64501;DHT22;50874;24.150;-110.320;2023-11-21T13:48:21;20.00;99.90
64501;DHT22;50874;24.150;-110.320;2023-11-21T13:50:57;20.00;99.90
64501;DHT22;50874;24.150;-110.320;2023-11-21T13:53:27;20.00;99.90
64501;DHT22;50874;24.150;-110.320;2023-11-21T13:55:54;20.00;99.90
64501;DHT22;50874;24.150;-110.320;2023-11-21T13:58:24;19.90;99.90
64501;DHT22;50874;24.150;-110.320;2023-11-21T14:01:26;20.00;99.90
64501;DHT22;50874;24.150;-110.320;2023-11-21T14:04:00;20.00;99.90
64501;DHT22;50874;24.150;-110.320;2023-11-21T14:06:49;20.00;99.90
64501;DHT22;50874;24.150;-110.320;2023-11-21T14:09:22;20.20;99.90
64501;DHT22;50874;24.150;-110.320;2023-11-21T14:11:57;20.20;99.90
64501;DHT22;50874;24.150;-110.320;2023-11-21T14:14:27;20.30;99.90
64501;DHT22;50874;24.150;-110.320;2023-11-21T14:16:56;20.30;99.90
64501;DHT22;50874;24.150;-110.320;2023-11-21T14:19:25;20.40;99.90
64501;DHT22;50874;24.150;-110.320;2023-11-21T14:21:57;20.40;99.90
64501;DHT22;50874;24.150;-110.320;2023-11-21T14:24:23;20.40;99.90
64501;DHT22;50874;24.150;-110.320;2023-11-21T14:26:51;20.60;99.90
64501;DHT22;50874;24.150;-110.320;2023-11-21T14:29:19;20.70;99.90
64501;DHT22;50874;24.150;-110.320;2023-11-21T14:31:47;20.80;99.90
64501;DHT22;50874;24.150;-110.320;2023-11-21T14:34:13;20.80;99.90
64501;DHT22;50874;24.150;-110.320;2023-11-21T14:36:41;20.90;99.90
64501;DHT22;50874;24.150;-110.320;2023-11-21T14:39:09;20.90;99.90
64501;DHT22;50874;24.150;-110.320;2023-11-21T14:41:47;20.90;99.90
64501;DHT22;50874;24.150;-110.320;2023-11-21T14:44:14;20.90;99.90
64501;DHT22;50874;24.150;-110.320;2023-11-21T14:46:41;21.00;99.90
64501;DHT22;50874;24.150;-110.320;2023-11-21T14:49:12;21.10;99.90
64501;DHT22;50874;24.150;-110.320;2023-11-21T14:51:52;21.20;99.90
64501;DHT22;50874;24.150;-110.320;2023-11-21T14:54:43;21.30;99.90
64501;DHT22;50874;24.150;-110.320;2023-11-21T14:57:13;21.30;99.90
64501;DHT22;50874;24.150;-110.320;2023-11-21T14:59:48;21.40;99.90
64501;DHT22;50874;24.150;-110.320;2023-11-21T15:02:23;21.50;99.90
64501;DHT22;50874;24.150;-110.320;2023-11-21T15:05:09;21.60;99.90
64501;DHT22;50874;24.150;-110.320;2023-11-21T15:07:42;21.70;99.90
64501;DHT22;50874;24.150;-110.320;2023-11-21T15:10:09;21.90;99.90
64501;DHT22;50874;24.150;-110.320;2023-11-21T15:12:41;22.00;99.90